sensor_id;sensor_type;location;lat;lon;timestamp;P1;durP1;ratioP1;P2;durP2;ratioP2
5819;SDS011;2936;47.348;9.640;2023-01-28T00:01:09;23.17;;;13.45;;
5819;SDS011;2936;47.348;9.640;2023-01-28T00:03:39;27.52;;;16.20;;
5819;SDS011;2936;47.348;9.640;2023-01-28T00:06:10;25.15;;;14.27;;
5819;SDS011;2936;47.348;9.640;2023-01-28T00:08:39;24.30;;;13.60;;
5819;SDS011;2936;47.348;9.640;2023-01-28T00:11:07;24.63;;;13.40;;
5819;SDS011;2936;47.348;9.640;2023-01-28T00:13:36;21.55;;;12.75;;
5819;SDS011;2936;47.348;9.640;2023-01-28T00:16:07;26.75;;;13.98;;
5819;SDS011;2936;47.348;9.640;2023-01-28T00:18:38;29.83;;;14.13;;
5819;SDS011;2936;47.348;9.640;2023-01-28T00:21:09;25.90;;;13.88;;
5819;SDS011;2936;47.348;9.640;2023-01-28T00:23:38;26.90;;;13.25;;
5819;SDS011;2936;47.348;9.640;2023-01-28T00:26:07;22.40;;;13.10;;
5819;SDS011;2936;47.348;9.640;2023-01-28T00:28:34;23.92;;;14.05;;
5819;SDS011;2936;47.348;9.640;2023-01-28T00:31:05;25.55;;;13.50;;
5819;SDS011;2936;47.348;9.640;2023-01-28T00:33:33;23.80;;;14.13;;
5819;SDS011;2936;47.348;9.640;2023-01-28T00:36:03;28.20;;;14.77;;
5819;SDS011;2936;47.348;9.640;2023-01-28T00:38:32;31.13;;;15.15;;
5819;SDS011;2936;47.348;9.640;2023-01-28T00:41:07;30.55;;;16.23;;
5819;SDS011;2936;47.348;9.640;2023-01-28T00:43:36;31.80;;;16.10;;
5819;SDS011;2936;47.348;9.640;2023-01-28T00:46:04;29.17;;;15.25;;
5819;SDS011;2936;47.348;9.640;2023-01-28T00:48:32;32.88;;;16.30;;
5819;SDS011;2936;47.348;9.640;2023-01-28T00:51:00;32.00;;;15.00;;
5819;SDS011;2936;47.348;9.640;2023-01-28T00:53:27;22.27;;;13.75;;
5819;SDS011;2936;47.348;9.640;2023-01-28T00:55:55;30.83;;;15.98;;
5819;SDS011;2936;47.348;9.640;2023-01-28T00:58:24;29.92;;;14.68;;
5819;SDS011;2936;47.348;9.640;2023-01-28T01:00:51;24.80;;;15.13;;
5819;SDS011;2936;47.348;9.640;2023-01-28T01:03:19;26.70;;;14.07;;
5819;SDS011;2936;47.348;9.640;2023-01-28T01:05:46;31.10;;;15.38;;
5819;SDS011;2936;47.348;9.640;2023-01-28T01:08:13;31.95;;;16.00;;
5819;SDS011;2936;47.348;9.640;2023-01-28T01:10:41;31.65;;;15.75;;
5819;SDS011;2936;47.348;9.640;2023-01-28T01:13:10;28.92;;;15.55;;
5819;SDS011;2936;47.348;9.640;2023-01-28T01:15:39;28.45;;;14.90;;
5819;SDS011;2936;47.348;9.640;2023-01-28T01:18:06;30.17;;;15.80;;
5819;SDS011;2936;47.348;9.640;2023-01-28T01:20:33;32.58;;;15.10;;
5819;SDS011;2936;47.348;9.640;2023-01-28T01:23:04;25.52;;;15.27;;
5819;SDS011;2936;47.348;9.640;2023-01-28T01:25:31;30.42;;;14.57;;
5819;SDS011;2936;47.348;9.640;2023-01-28T01:27:58;26.02;;;14.35;;
5819;SDS011;2936;47.348;9.640;2023-01-28T01:30:26;27.13;;;14.70;;
5819;SDS011;2936;47.348;9.640;2023-01-28T01:32:54;29.05;;;14.75;;
5819;SDS011;2936;47.348;9.640;2023-01-28T01:35:22;30.23;;;13.88;;
5819;SDS011;2936;47.348;9.640;2023-01-28T01:37:50;28.10;;;15.18;;
5819;SDS011;2936;47.348;9.640;2023-01-28T01:40:17;30.10;;;15.52;;
5819;SDS011;2936;47.348;9.640;2023-01-28T01:42:44;30.52;;;14.80;;
5819;SDS011;2936;47.348;9.640;2023-01-28T01:45:12;26.83;;;15.15;;
5819;SDS011;2936;47.348;9.640;2023-01-28T01:47:42;28.00;;;14.07;;
5819;SDS011;2936;47.348;9.640;2023-01-28T01:50:15;28.88;;;14.60;;
5819;SDS011;2936;47.348;9.640;2023-01-28T01:52:44;26.80;;;14.30;;
5819;SDS011;2936;47.348;9.640;2023-01-28T01:55:13;28.27;;;14.60;;
5819;SDS011;2936;47.348;9.640;2023-01-28T01:57:45;30.23;;;14.85;;
5819;SDS011;2936;47.348;9.640;2023-01-28T02:00:13;27.85;;;13.15;;
5819;SDS011;2936;47.348;9.640;2023-01-28T02:02:42;34.78;;;15.88;;
5819;SDS011;2936;47.348;9.640;2023-01-28T02:05:13;26.95;;;14.95;;
5819;SDS011;2936;47.348;9.640;2023-01-28T02:07:41;26.50;;;13.88;;
5819;SDS011;2936;47.348;9.640;2023-01-28T02:10:10;24.55;;;13.05;;
5819;SDS011;2936;47.348;9.640;2023-01-28T02:12:41;23.17;;;13.90;;
5819;SDS011;2936;47.348;9.640;2023-01-28T02:15:10;25.50;;;13.50;;
5819;SDS011;2936;47.348;9.640;2023-01-28T02:17:38;26.05;;;12.93;;
5819;SDS011;2936;47.348;9.640;2023-01-28T02:20:06;31.38;;;13.40;;
5819;SDS011;2936;47.348;9.640;2023-01-28T02:28:18;27.42;;;12.38;;
5819;SDS011;2936;47.348;9.640;2023-01-28T02:30:50;30.20;;;15.35;;
5819;SDS011;2936;47.348;9.640;2023-01-28T02:33:21;26.30;;;14.15;;
5819;SDS011;2936;47.348;9.640;2023-01-28T02:35:51;22.27;;;12.63;;
5819;SDS011;2936;47.348;9.640;2023-01-28T02:38:20;22.00;;;13.55;;
5819;SDS011;2936;47.348;9.640;2023-01-28T02:40:50;21.70;;;13.80;;
5819;SDS011;2936;47.348;9.640;2023-01-28T02:43:31;26.30;;;13.45;;
5819;SDS011;2936;47.348;9.640;2023-01-28T02:45:59;26.25;;;13.65;;
5819;SDS011;2936;47.348;9.640;2023-01-28T02:48:43;21.17;;;12.18;;
5819;SDS011;2936;47.348;9.640;2023-01-28T02:51:13;24.75;;;12.48;;
5819;SDS011;2936;47.348;9.640;2023-01-28T02:53:45;24.02;;;12.05;;
5819;SDS011;2936;47.348;9.640;2023-01-28T02:56:17;26.88;;;13.73;;
5819;SDS011;2936;47.348;9.640;2023-01-28T02:58:51;28.45;;;14.40;;
5819;SDS011;2936;47.348;9.640;2023-01-28T03:01:24;26.17;;;14.10;;
5819;SDS011;2936;47.348;9.640;2023-01-28T03:03:55;21.73;;;12.45;;
5819;SDS011;2936;47.348;9.640;2023-01-28T03:06:25;25.17;;;13.75;;
5819;SDS011;2936;47.348;9.640;2023-01-28T03:08:56;25.17;;;14.15;;
5819;SDS011;2936;47.348;9.640;2023-01-28T03:11:42;29.10;;;13.27;;
5819;SDS011;2936;47.348;9.640;2023-01-28T03:14:29;26.15;;;14.63;;
5819;SDS011;2936;47.348;9.640;2023-01-28T03:17:17;24.88;;;13.77;;
5819;SDS011;2936;47.348;9.640;2023-01-28T03:20:03;21.70;;;13.45;;
5819;SDS011;2936;47.348;9.640;2023-01-28T03:22:49;24.27;;;13.50;;
5819;SDS011;2936;47.348;9.640;2023-01-28T03:25:35;26.48;;;13.93;;
5819;SDS011;2936;47.348;9.640;2023-01-28T03:28:21;21.20;;;11.55;;
5819;SDS011;2936;47.348;9.640;2023-01-28T03:31:09;27.48;;;13.32;;
5819;SDS011;2936;47.348;9.640;2023-01-28T03:33:55;23.95;;;13.35;;
5819;SDS011;2936;47.348;9.640;2023-01-28T03:36:40;23.00;;;13.23;;
5819;SDS011;2936;47.348;9.640;2023-01-28T03:39:15;24.63;;;12.90;;
5819;SDS011;2936;47.348;9.640;2023-01-28T03:41:42;25.60;;;13.85;;
5819;SDS011;2936;47.348;9.640;2023-01-28T03:44:11;24.10;;;12.40;;
5819;SDS011;2936;47.348;9.640;2023-01-28T03:46:57;21.98;;;13.18;;
5819;SDS011;2936;47.348;9.640;2023-01-28T03:49:25;27.08;;;14.35;;
5819;SDS011;2936;47.348;9.640;2023-01-28T03:51:53;19.15;;;12.00;;
5819;SDS011;2936;47.348;9.640;2023-01-28T03:54:20;33.67;;;13.95;;
5819;SDS011;2936;47.348;9.640;2023-01-28T03:56:48;32.17;;;16.00;;
5819;SDS011;2936;47.348;9.640;2023-01-28T03:59:15;31.38;;;16.15;;
5819;SDS011;2936;47.348;9.640;2023-01-28T04:01:43;22.90;;;13.73;;
5819;SDS011;2936;47.348;9.640;2023-01-28T04:04:12;25.05;;;13.77;;
5819;SDS011;2936;47.348;9.640;2023-01-28T04:06:47;29.92;;;14.32;;
5819;SDS011;2936;47.348;9.640;2023-01-28T04:09:14;30.00;;;13.73;;
5819;SDS011;2936;47.348;9.640;2023-01-28T04:11:42;29.10;;;14.50;;
5819;SDS011;2936;47.348;9.640;2023-01-28T04:14:09;24.88;;;14.10;;
5819;SDS011;2936;47.348;9.640;2023-01-28T04:16:37;26.27;;;13.82;;
5819;SDS011;2936;47.348;9.640;2023-01-28T04:19:05;22.90;;;12.80;;
5819;SDS011;2936;47.348;9.640;2023-01-28T04:21:33;29.95;;;13.90;;
5819;SDS011;2936;47.348;9.640;2023-01-28T04:24:01;27.95;;;13.75;;
5819;SDS011;2936;47.348;9.640;2023-01-28T04:26:28;25.15;;;13.02;;
5819;SDS011;2936;47.348;9.640;2023-01-28T04:28:55;20.17;;;12.30;;
5819;SDS011;2936;47.348;9.640;2023-01-28T04:31:23;27.15;;;13.57;;
5819;SDS011;2936;47.348;9.640;2023-01-28T04:33:50;26.95;;;14.85;;
5819;SDS011;2936;47.348;9.640;2023-01-28T04:36:18;22.48;;;12.80;;
5819;SDS011;2936;47.348;9.640;2023-01-28T04:38:46;28.42;;;13.77;;
5819;SDS011;2936;47.348;9.640;2023-01-28T04:41:14;26.95;;;14.07;;
5819;SDS011;2936;47.348;9.640;2023-01-28T04:43:41;24.13;;;12.35;;
5819;SDS011;2936;47.348;9.640;2023-01-28T04:46:08;26.95;;;14.57;;
5819;SDS011;2936;47.348;9.640;2023-01-28T04:48:36;24.98;;;12.90;;
5819;SDS011;2936;47.348;9.640;2023-01-28T04:51:03;23.98;;;14.73;;
5819;SDS011;2936;47.348;9.640;2023-01-28T04:53:32;23.67;;;13.65;;
5819;SDS011;2936;47.348;9.640;2023-01-28T04:56:01;25.35;;;13.57;;
5819;SDS011;2936;47.348;9.640;2023-01-28T04:58:29;28.15;;;13.60;;
5819;SDS011;2936;47.348;9.640;2023-01-28T05:00:57;26.77;;;13.65;;
5819;SDS011;2936;47.348;9.640;2023-01-28T05:03:24;25.73;;;14.38;;
5819;SDS011;2936;47.348;9.640;2023-01-28T05:05:52;21.90;;;13.20;;
5819;SDS011;2936;47.348;9.640;2023-01-28T05:08:19;23.80;;;13.70;;
5819;SDS011;2936;47.348;9.640;2023-01-28T05:10:46;19.55;;;12.15;;
5819;SDS011;2936;47.348;9.640;2023-01-28T05:13:15;30.20;;;14.20;;
5819;SDS011;2936;47.348;9.640;2023-01-28T05:15:42;24.35;;;12.52;;
5819;SDS011;2936;47.348;9.640;2023-01-28T05:18:10;27.05;;;13.73;;
5819;SDS011;2936;47.348;9.640;2023-01-28T05:20:37;21.85;;;13.18;;
5819;SDS011;2936;47.348;9.640;2023-01-28T05:23:04;20.25;;;13.45;;
5819;SDS011;2936;47.348;9.640;2023-01-28T05:25:32;26.00;;;14.30;;
5819;SDS011;2936;47.348;9.640;2023-01-28T05:27:59;24.13;;;13.80;;
5819;SDS011;2936;47.348;9.640;2023-01-28T05:30:28;22.45;;;13.02;;
5819;SDS011;2936;47.348;9.640;2023-01-28T05:32:55;22.10;;;13.43;;
5819;SDS011;2936;47.348;9.640;2023-01-28T05:35:23;23.45;;;12.70;;
5819;SDS011;2936;47.348;9.640;2023-01-28T05:37:50;24.08;;;13.38;;
5819;SDS011;2936;47.348;9.640;2023-01-28T05:40:17;23.92;;;12.90;;
5819;SDS011;2936;47.348;9.640;2023-01-28T05:42:45;22.38;;;13.07;;
5819;SDS011;2936;47.348;9.640;2023-01-28T05:45:12;24.38;;;13.90;;
5819;SDS011;2936;47.348;9.640;2023-01-28T05:47:41;22.80;;;13.75;;
5819;SDS011;2936;47.348;9.640;2023-01-28T05:50:09;21.23;;;13.00;;
5819;SDS011;2936;47.348;9.640;2023-01-28T05:52:39;22.13;;;14.38;;
5819;SDS011;2936;47.348;9.640;2023-01-28T05:55:06;22.67;;;12.65;;
5819;SDS011;2936;47.348;9.640;2023-01-28T05:57:34;17.10;;;11.00;;
5819;SDS011;2936;47.348;9.640;2023-01-28T06:00:02;15.77;;;10.23;;
5819;SDS011;2936;47.348;9.640;2023-01-28T06:02:40;16.45;;;10.90;;
5819;SDS011;2936;47.348;9.640;2023-01-28T06:05:09;15.30;;;10.25;;
5819;SDS011;2936;47.348;9.640;2023-01-28T06:07:36;15.25;;;9.93;;
5819;SDS011;2936;47.348;9.640;2023-01-28T06:10:04;17.38;;;10.63;;
5819;SDS011;2936;47.348;9.640;2023-01-28T06:12:31;18.92;;;10.60;;
5819;SDS011;2936;47.348;9.640;2023-01-28T06:14:59;15.85;;;10.30;;
5819;SDS011;2936;47.348;9.640;2023-01-28T06:17:26;16.48;;;10.23;;
5819;SDS011;2936;47.348;9.640;2023-01-28T06:19:54;17.95;;;10.88;;
5819;SDS011;2936;47.348;9.640;2023-01-28T06:22:22;19.13;;;11.95;;
5819;SDS011;2936;47.348;9.640;2023-01-28T06:24:50;17.70;;;10.63;;
5819;SDS011;2936;47.348;9.640;2023-01-28T06:27:17;16.45;;;10.65;;
5819;SDS011;2936;47.348;9.640;2023-01-28T06:29:44;16.63;;;11.60;;
5819;SDS011;2936;47.348;9.640;2023-01-28T06:32:12;19.13;;;12.32;;
5819;SDS011;2936;47.348;9.640;2023-01-28T06:34:39;13.75;;;10.68;;
5819;SDS011;2936;47.348;9.640;2023-01-28T06:37:07;22.77;;;11.32;;
5819;SDS011;2936;47.348;9.640;2023-01-28T06:39:35;18.52;;;11.98;;
5819;SDS011;2936;47.348;9.640;2023-01-28T06:42:03;17.05;;;10.40;;
5819;SDS011;2936;47.348;9.640;2023-01-28T06:44:30;16.77;;;10.95;;
5819;SDS011;2936;47.348;9.640;2023-01-28T06:46:57;18.88;;;11.70;;
5819;SDS011;2936;47.348;9.640;2023-01-28T06:49:25;20.58;;;11.68;;
5819;SDS011;2936;47.348;9.640;2023-01-28T06:51:52;15.93;;;11.30;;
5819;SDS011;2936;47.348;9.640;2023-01-28T06:54:19;24.67;;;11.98;;
5819;SDS011;2936;47.348;9.640;2023-01-28T06:56:48;24.65;;;14.73;;
5819;SDS011;2936;47.348;9.640;2023-01-28T06:59:16;17.83;;;12.35;;
5819;SDS011;2936;47.348;9.640;2023-01-28T07:01:43;20.95;;;11.73;;
5819;SDS011;2936;47.348;9.640;2023-01-28T07:04:10;18.13;;;12.05;;
5819;SDS011;2936;47.348;9.640;2023-01-28T07:06:38;23.52;;;13.27;;
5819;SDS011;2936;47.348;9.640;2023-01-28T07:09:05;29.60;;;16.17;;
5819;SDS011;2936;47.348;9.640;2023-01-28T07:11:32;26.38;;;15.07;;
5819;SDS011;2936;47.348;9.640;2023-01-28T07:14:01;23.70;;;13.57;;
5819;SDS011;2936;47.348;9.640;2023-01-28T07:16:28;21.05;;;13.60;;
5819;SDS011;2936;47.348;9.640;2023-01-28T07:18:56;20.67;;;12.40;;
5819;SDS011;2936;47.348;9.640;2023-01-28T07:21:23;22.02;;;12.68;;
5819;SDS011;2936;47.348;9.640;2023-01-28T07:23:51;22.63;;;12.00;;
5819;SDS011;2936;47.348;9.640;2023-01-28T07:26:18;21.23;;;11.70;;
5819;SDS011;2936;47.348;9.640;2023-01-28T07:28:45;19.75;;;12.13;;
5819;SDS011;2936;47.348;9.640;2023-01-28T07:31:14;17.80;;;11.82;;
5819;SDS011;2936;47.348;9.640;2023-01-28T07:33:41;14.80;;;9.95;;
5819;SDS011;2936;47.348;9.640;2023-01-28T07:36:09;21.77;;;13.20;;
5819;SDS011;2936;47.348;9.640;2023-01-28T07:38:36;20.98;;;11.60;;
5819;SDS011;2936;47.348;9.640;2023-01-28T07:41:03;20.17;;;13.32;;
5819;SDS011;2936;47.348;9.640;2023-01-28T07:43:31;19.10;;;10.98;;
5819;SDS011;2936;47.348;9.640;2023-01-28T07:45:59;19.48;;;11.30;;
5819;SDS011;2936;47.348;9.640;2023-01-28T07:48:28;18.83;;;11.98;;
5819;SDS011;2936;47.348;9.640;2023-01-28T07:50:57;16.80;;;11.85;;
5819;SDS011;2936;47.348;9.640;2023-01-28T07:53:24;25.55;;;12.65;;
5819;SDS011;2936;47.348;9.640;2023-01-28T07:55:51;33.38;;;15.45;;
5819;SDS011;2936;47.348;9.640;2023-01-28T07:58:24;28.55;;;14.32;;
5819;SDS011;2936;47.348;9.640;2023-01-28T08:00:54;24.92;;;13.10;;
5819;SDS011;2936;47.348;9.640;2023-01-28T08:03:22;19.67;;;12.18;;
5819;SDS011;2936;47.348;9.640;2023-01-28T08:05:51;21.88;;;11.65;;
5819;SDS011;2936;47.348;9.640;2023-01-28T08:08:19;15.82;;;11.55;;
5819;SDS011;2936;47.348;9.640;2023-01-28T08:10:46;24.80;;;18.27;;
5819;SDS011;2936;47.348;9.640;2023-01-28T08:13:14;30.88;;;18.63;;
5819;SDS011;2936;47.348;9.640;2023-01-28T08:15:42;15.40;;;11.82;;
5819;SDS011;2936;47.348;9.640;2023-01-28T08:18:10;20.60;;;13.52;;
5819;SDS011;2936;47.348;9.640;2023-01-28T08:20:40;18.55;;;11.55;;
5819;SDS011;2936;47.348;9.640;2023-01-28T08:23:12;19.08;;;12.35;;
5819;SDS011;2936;47.348;9.640;2023-01-28T08:25:39;17.20;;;11.10;;
5819;SDS011;2936;47.348;9.640;2023-01-28T08:28:07;16.02;;;10.90;;
5819;SDS011;2936;47.348;9.640;2023-01-28T08:30:35;25.15;;;11.45;;
5819;SDS011;2936;47.348;9.640;2023-01-28T08:33:03;23.20;;;12.65;;
5819;SDS011;2936;47.348;9.640;2023-01-28T08:35:31;22.08;;;12.68;;
5819;SDS011;2936;47.348;9.640;2023-01-28T08:37:58;23.38;;;13.43;;
5819;SDS011;2936;47.348;9.640;2023-01-28T08:40:27;22.15;;;12.52;;
5819;SDS011;2936;47.348;9.640;2023-01-28T08:42:55;21.15;;;13.02;;
5819;SDS011;2936;47.348;9.640;2023-01-28T08:45:23;51.95;;;12.05;;
5819;SDS011;2936;47.348;9.640;2023-01-28T08:47:51;18.67;;;11.38;;
5819;SDS011;2936;47.348;9.640;2023-01-28T08:50:20;25.98;;;10.85;;
5819;SDS011;2936;47.348;9.640;2023-01-28T08:52:47;32.22;;;12.63;;
5819;SDS011;2936;47.348;9.640;2023-01-28T08:55:15;35.97;;;12.40;;
5819;SDS011;2936;47.348;9.640;2023-01-28T08:57:44;32.00;;;14.18;;
5819;SDS011;2936;47.348;9.640;2023-01-28T09:00:12;29.60;;;13.35;;
5819;SDS011;2936;47.348;9.640;2023-01-28T09:02:40;29.13;;;12.45;;
5819;SDS011;2936;47.348;9.640;2023-01-28T09:05:07;24.75;;;11.60;;
5819;SDS011;2936;47.348;9.640;2023-01-28T09:07:35;16.85;;;11.95;;
5819;SDS011;2936;47.348;9.640;2023-01-28T09:10:03;23.10;;;12.68;;
5819;SDS011;2936;47.348;9.640;2023-01-28T09:12:31;24.77;;;11.73;;
5819;SDS011;2936;47.348;9.640;2023-01-28T09:15:00;33.30;;;13.98;;
5819;SDS011;2936;47.348;9.640;2023-01-28T09:17:27;20.77;;;12.10;;
5819;SDS011;2936;47.348;9.640;2023-01-28T09:19:55;21.50;;;12.57;;
5819;SDS011;2936;47.348;9.640;2023-01-28T09:22:22;30.00;;;14.32;;
5819;SDS011;2936;47.348;9.640;2023-01-28T09:24:49;82.60;;;15.73;;
5819;SDS011;2936;47.348;9.640;2023-01-28T09:27:17;34.60;;;14.43;;
5819;SDS011;2936;47.348;9.640;2023-01-28T09:29:45;36.38;;;13.10;;
5819;SDS011;2936;47.348;9.640;2023-01-28T09:32:14;31.35;;;14.23;;
5819;SDS011;2936;47.348;9.640;2023-01-28T09:34:41;66.25;;;14.27;;
5819;SDS011;2936;47.348;9.640;2023-01-28T09:37:09;47.28;;;13.90;;
5819;SDS011;2936;47.348;9.640;2023-01-28T09:39:36;27.52;;;13.52;;
5819;SDS011;2936;47.348;9.640;2023-01-28T09:42:08;34.38;;;15.20;;
5819;SDS011;2936;47.348;9.640;2023-01-28T09:44:44;34.85;;;14.18;;
5819;SDS011;2936;47.348;9.640;2023-01-28T09:47:21;36.85;;;15.05;;
5819;SDS011;2936;47.348;9.640;2023-01-28T09:49:50;29.17;;;14.80;;
5819;SDS011;2936;47.348;9.640;2023-01-28T09:52:18;44.85;;;14.82;;
5819;SDS011;2936;47.348;9.640;2023-01-28T09:54:48;54.28;;;15.98;;
5819;SDS011;2936;47.348;9.640;2023-01-28T09:57:17;32.05;;;12.90;;
5819;SDS011;2936;47.348;9.640;2023-01-28T09:59:46;37.33;;;14.23;;
5819;SDS011;2936;47.348;9.640;2023-01-28T10:02:25;29.30;;;14.30;;
5819;SDS011;2936;47.348;9.640;2023-01-28T10:04:57;32.10;;;14.45;;
5819;SDS011;2936;47.348;9.640;2023-01-28T10:07:28;30.20;;;15.30;;
5819;SDS011;2936;47.348;9.640;2023-01-28T10:09:59;67.00;;;17.33;;
5819;SDS011;2936;47.348;9.640;2023-01-28T10:12:32;41.92;;;14.70;;
5819;SDS011;2936;47.348;9.640;2023-01-28T10:15:08;26.05;;;14.68;;
5819;SDS011;2936;47.348;9.640;2023-01-28T10:17:39;33.28;;;14.60;;
5819;SDS011;2936;47.348;9.640;2023-01-28T10:20:13;56.30;;;16.17;;
5819;SDS011;2936;47.348;9.640;2023-01-28T10:22:45;39.15;;;16.10;;
5819;SDS011;2936;47.348;9.640;2023-01-28T10:25:16;28.42;;;15.23;;
5819;SDS011;2936;47.348;9.640;2023-01-28T10:27:44;107.97;;;19.50;;
5819;SDS011;2936;47.348;9.640;2023-01-28T10:30:16;25.50;;;13.70;;
5819;SDS011;2936;47.348;9.640;2023-01-28T10:32:47;24.65;;;14.70;;
5819;SDS011;2936;47.348;9.640;2023-01-28T10:35:20;54.30;;;16.27;;
5819;SDS011;2936;47.348;9.640;2023-01-28T10:37:48;31.88;;;15.95;;
5819;SDS011;2936;47.348;9.640;2023-01-28T10:40:16;45.08;;;16.63;;
5819;SDS011;2936;47.348;9.640;2023-01-28T10:42:46;61.53;;;15.88;;
5819;SDS011;2936;47.348;9.640;2023-01-28T10:45:16;34.20;;;14.75;;
5819;SDS011;2936;47.348;9.640;2023-01-28T10:47:45;35.67;;;16.63;;
5819;SDS011;2936;47.348;9.640;2023-01-28T10:50:16;58.60;;;17.77;;
5819;SDS011;2936;47.348;9.640;2023-01-28T10:52:54;56.78;;;18.35;;
5819;SDS011;2936;47.348;9.640;2023-01-28T10:55:21;25.67;;;15.85;;
5819;SDS011;2936;47.348;9.640;2023-01-28T10:57:49;39.65;;;15.88;;
5819;SDS011;2936;47.348;9.640;2023-01-28T11:00:21;64.53;;;17.88;;
5819;SDS011;2936;47.348;9.640;2023-01-28T11:02:49;47.95;;;17.52;;
5819;SDS011;2936;47.348;9.640;2023-01-28T11:05:18;23.38;;;14.52;;
5819;SDS011;2936;47.348;9.640;2023-01-28T11:07:46;39.05;;;16.48;;
5819;SDS011;2936;47.348;9.640;2023-01-28T11:10:28;56.75;;;20.70;;
5819;SDS011;2936;47.348;9.640;2023-01-28T11:12:56;36.25;;;17.17;;
5819;SDS011;2936;47.348;9.640;2023-01-28T11:15:24;31.80;;;16.42;;
5819;SDS011;2936;47.348;9.640;2023-01-28T11:17:53;27.10;;;16.23;;
5819;SDS011;2936;47.348;9.640;2023-01-28T11:20:23;26.33;;;16.50;;
5819;SDS011;2936;47.348;9.640;2023-01-28T11:22:51;39.80;;;16.10;;
5819;SDS011;2936;47.348;9.640;2023-01-28T11:25:24;29.88;;;15.40;;
5819;SDS011;2936;47.348;9.640;2023-01-28T11:27:53;51.00;;;17.70;;
5819;SDS011;2936;47.348;9.640;2023-01-28T11:30:22;30.25;;;16.45;;
5819;SDS011;2936;47.348;9.640;2023-01-28T11:32:56;27.20;;;15.30;;
5819;SDS011;2936;47.348;9.640;2023-01-28T11:35:26;31.48;;;14.90;;
5819;SDS011;2936;47.348;9.640;2023-01-28T11:37:55;35.05;;;15.38;;
5819;SDS011;2936;47.348;9.640;2023-01-28T11:40:22;26.20;;;14.90;;
5819;SDS011;2936;47.348;9.640;2023-01-28T11:42:50;62.10;;;17.08;;
5819;SDS011;2936;47.348;9.640;2023-01-28T11:45:18;29.50;;;15.55;;
5819;SDS011;2936;47.348;9.640;2023-01-28T11:47:58;29.25;;;15.75;;
5819;SDS011;2936;47.348;9.640;2023-01-28T11:50:34;27.42;;;14.57;;
5819;SDS011;2936;47.348;9.640;2023-01-28T11:55:58;30.33;;;16.45;;
5819;SDS011;2936;47.348;9.640;2023-01-28T11:58:30;42.53;;;15.50;;
5819;SDS011;2936;47.348;9.640;2023-01-28T12:01:01;31.33;;;16.55;;
5819;SDS011;2936;47.348;9.640;2023-01-28T12:06:30;24.23;;;15.18;;
5819;SDS011;2936;47.348;9.640;2023-01-28T12:09:02;33.67;;;16.17;;
5819;SDS011;2936;47.348;9.640;2023-01-28T12:11:36;30.70;;;15.68;;
5819;SDS011;2936;47.348;9.640;2023-01-28T12:14:26;23.50;;;15.10;;
5819;SDS011;2936;47.348;9.640;2023-01-28T12:16:57;45.17;;;16.90;;
5819;SDS011;2936;47.348;9.640;2023-01-28T12:22:20;36.20;;;16.48;;
5819;SDS011;2936;47.348;9.640;2023-01-28T12:24:55;37.40;;;15.15;;
5819;SDS011;2936;47.348;9.640;2023-01-28T12:27:32;39.08;;;18.25;;
5819;SDS011;2936;47.348;9.640;2023-01-28T12:30:11;27.80;;;16.00;;
5819;SDS011;2936;47.348;9.640;2023-01-28T12:32:46;45.75;;;17.25;;
5819;SDS011;2936;47.348;9.640;2023-01-28T12:35:29;35.38;;;17.00;;
5819;SDS011;2936;47.348;9.640;2023-01-28T12:38:01;34.38;;;17.83;;
5819;SDS011;2936;47.348;9.640;2023-01-28T12:43:32;25.83;;;15.23;;
5819;SDS011;2936;47.348;9.640;2023-01-28T12:46:04;44.25;;;18.25;;
5819;SDS011;2936;47.348;9.640;2023-01-28T12:48:35;39.05;;;17.30;;
5819;SDS011;2936;47.348;9.640;2023-01-28T12:51:07;35.85;;;16.90;;
5819;SDS011;2936;47.348;9.640;2023-01-28T12:53:39;27.58;;;16.05;;
5819;SDS011;2936;47.348;9.640;2023-01-28T12:56:09;37.63;;;18.17;;
5819;SDS011;2936;47.348;9.640;2023-01-28T12:58:41;28.10;;;16.25;;
5819;SDS011;2936;47.348;9.640;2023-01-28T13:01:12;46.03;;;16.80;;
5819;SDS011;2936;47.348;9.640;2023-01-28T13:03:41;36.22;;;15.75;;
5819;SDS011;2936;47.348;9.640;2023-01-28T13:06:10;37.50;;;18.27;;
5819;SDS011;2936;47.348;9.640;2023-01-28T13:08:41;32.03;;;16.88;;
5819;SDS011;2936;47.348;9.640;2023-01-28T13:11:11;44.63;;;17.48;;
5819;SDS011;2936;47.348;9.640;2023-01-28T13:13:41;38.38;;;16.92;;
5819;SDS011;2936;47.348;9.640;2023-01-28T13:16:09;34.33;;;16.65;;
5819;SDS011;2936;47.348;9.640;2023-01-28T13:18:42;29.25;;;16.75;;
5819;SDS011;2936;47.348;9.640;2023-01-28T13:21:12;33.03;;;16.95;;
5819;SDS011;2936;47.348;9.640;2023-01-28T13:23:42;41.05;;;17.83;;
5819;SDS011;2936;47.348;9.640;2023-01-28T13:26:23;33.17;;;15.52;;
5819;SDS011;2936;47.348;9.640;2023-01-28T13:28:52;34.55;;;14.63;;
5819;SDS011;2936;47.348;9.640;2023-01-28T13:31:20;24.58;;;14.30;;
5819;SDS011;2936;47.348;9.640;2023-01-28T13:33:59;27.05;;;12.70;;
5819;SDS011;2936;47.348;9.640;2023-01-28T13:36:28;23.05;;;13.32;;
5819;SDS011;2936;47.348;9.640;2023-01-28T13:39:01;29.35;;;12.55;;
5819;SDS011;2936;47.348;9.640;2023-01-28T13:41:41;22.95;;;13.13;;
5819;SDS011;2936;47.348;9.640;2023-01-28T13:44:19;28.42;;;16.52;;
5819;SDS011;2936;47.348;9.640;2023-01-28T13:46:46;27.90;;;13.27;;
5819;SDS011;2936;47.348;9.640;2023-01-28T13:49:14;22.42;;;12.73;;
5819;SDS011;2936;47.348;9.640;2023-01-28T13:51:44;29.83;;;14.10;;
5819;SDS011;2936;47.348;9.640;2023-01-28T13:54:17;21.10;;;11.88;;
5819;SDS011;2936;47.348;9.640;2023-01-28T13:56:50;22.40;;;11.45;;
5819;SDS011;2936;47.348;9.640;2023-01-28T13:59:34;19.20;;;12.65;;
5819;SDS011;2936;47.348;9.640;2023-01-28T14:04:55;21.77;;;12.27;;
5819;SDS011;2936;47.348;9.640;2023-01-28T14:07:39;22.98;;;13.30;;
5819;SDS011;2936;47.348;9.640;2023-01-28T14:10:14;26.17;;;12.80;;
5819;SDS011;2936;47.348;9.640;2023-01-28T14:13:00;24.17;;;13.02;;
5819;SDS011;2936;47.348;9.640;2023-01-28T14:18:14;26.95;;;12.30;;
5819;SDS011;2936;47.348;9.640;2023-01-28T14:20:44;25.48;;;12.65;;
5819;SDS011;2936;47.348;9.640;2023-01-28T14:23:15;24.17;;;14.07;;
5819;SDS011;2936;47.348;9.640;2023-01-28T14:25:48;28.00;;;13.85;;
5819;SDS011;2936;47.348;9.640;2023-01-28T14:28:17;24.90;;;14.40;;
5819;SDS011;2936;47.348;9.640;2023-01-28T14:30:46;28.02;;;13.40;;
5819;SDS011;2936;47.348;9.640;2023-01-28T14:33:16;22.95;;;13.32;;
5819;SDS011;2936;47.348;9.640;2023-01-28T14:35:44;21.95;;;12.40;;
5819;SDS011;2936;47.348;9.640;2023-01-28T14:38:13;25.33;;;13.55;;
5819;SDS011;2936;47.348;9.640;2023-01-28T14:40:41;25.63;;;12.43;;
5819;SDS011;2936;47.348;9.640;2023-01-28T14:43:15;20.27;;;13.13;;
5819;SDS011;2936;47.348;9.640;2023-01-28T14:45:50;20.67;;;12.07;;
5819;SDS011;2936;47.348;9.640;2023-01-28T14:48:24;19.88;;;13.50;;
5819;SDS011;2936;47.348;9.640;2023-01-28T14:51:05;21.05;;;12.52;;
5819;SDS011;2936;47.348;9.640;2023-01-28T14:56:21;20.67;;;13.00;;
5819;SDS011;2936;47.348;9.640;2023-01-28T14:58:56;31.92;;;11.88;;
5819;SDS011;2936;47.348;9.640;2023-01-28T15:01:28;31.17;;;15.20;;
5819;SDS011;2936;47.348;9.640;2023-01-28T15:03:59;23.30;;;12.65;;
5819;SDS011;2936;47.348;9.640;2023-01-28T15:06:29;53.88;;;22.40;;
5819;SDS011;2936;47.348;9.640;2023-01-28T15:09:07;43.67;;;20.67;;
5819;SDS011;2936;47.348;9.640;2023-01-28T15:11:36;48.30;;;21.85;;
5819;SDS011;2936;47.348;9.640;2023-01-28T15:14:11;79.40;;;32.53;;
5819;SDS011;2936;47.348;9.640;2023-01-28T15:16:39;28.98;;;13.10;;
5819;SDS011;2936;47.348;9.640;2023-01-28T15:19:09;23.45;;;13.20;;
5819;SDS011;2936;47.348;9.640;2023-01-28T15:21:38;25.63;;;13.43;;
5819;SDS011;2936;47.348;9.640;2023-01-28T15:24:08;27.63;;;15.77;;
5819;SDS011;2936;47.348;9.640;2023-01-28T15:26:37;31.67;;;16.30;;
5819;SDS011;2936;47.348;9.640;2023-01-28T15:29:05;39.33;;;19.52;;
5819;SDS011;2936;47.348;9.640;2023-01-28T15:31:34;36.53;;;17.17;;